createdAt,value
2018-12-28T00:00:03.509Z,101168.94
2018-12-28T00:01:09.519Z,101170.22
2018-12-28T00:02:15.472Z,101169.79
2018-12-28T00:03:21.486Z,101176.63
2018-12-28T00:04:27.434Z,101176.20
2018-12-28T00:05:33.397Z,101177.48
2018-12-28T00:06:39.321Z,101178.84
2018-12-28T00:07:45.264Z,101177.18
2018-12-28T00:08:57.288Z,101180.21
2018-12-28T00:09:57.109Z,101182.37
2018-12-28T00:11:03.045Z,101182.79
2018-12-28T00:12:08.986Z,101184.52
2018-12-28T00:13:14.982Z,101183.22
2018-12-28T00:14:20.934Z,101192.30
2018-12-28T00:15:26.899Z,101187.54
2018-12-28T00:16:32.826Z,101189.27
2018-12-28T00:17:38.743Z,101190.61
2018-12-28T00:18:44.725Z,101189.31
2018-12-28T00:19:50.728Z,101199.67
2018-12-28T00:20:56.710Z,101200.09
2018-12-28T00:22:02.664Z,101197.95
2018-12-28T00:23:08.597Z,101200.54
2018-12-28T00:24:14.575Z,101202.30
2018-12-28T00:25:20.485Z,101197.52
2018-12-28T00:26:26.460Z,101199.26
2018-12-28T00:27:32.393Z,101198.41
2018-12-28T00:28:38.372Z,101198.38
2018-12-28T00:29:44.295Z,101210.05
2018-12-28T00:30:50.193Z,101216.53
2018-12-28T00:31:56.120Z,101214.80
2018-12-28T00:33:02.125Z,101222.56
2018-12-28T00:34:08.104Z,101226.90
2018-12-28T00:35:13.746Z,101223.02
2018-12-28T00:36:19.716Z,101222.16
2018-12-28T00:37:25.641Z,101226.91
2018-12-28T00:38:31.589Z,101226.92
2018-12-28T00:39:37.551Z,101228.62
2018-12-28T00:40:43.512Z,101238.15
2018-12-28T00:41:49.543Z,101227.77
2018-12-28T00:42:55.521Z,101231.22
2018-12-28T00:44:01.533Z,101230.37
2018-12-28T00:45:07.129Z,101229.09
2018-12-28T00:46:13.040Z,101231.67
2018-12-28T00:47:18.948Z,101230.36
2018-12-28T00:48:26.952Z,101230.39
2018-12-28T00:49:33.194Z,101229.08
2018-12-28T00:50:39.141Z,101228.66
2018-12-28T00:51:45.119Z,101229.94
2018-12-28T00:52:51.057Z,101231.20
2018-12-28T00:53:57.057Z,101222.58
2018-12-28T00:55:02.989Z,101230.36
2018-12-28T00:56:09.042Z,101222.17
2018-12-28T00:57:14.949Z,101222.60
2018-12-28T00:58:21.005Z,101222.59
2018-12-28T00:59:27.006Z,101228.20
2018-12-28T01:00:32.961Z,101217.83
2018-12-28T01:01:38.937Z,101225.19
2018-12-28T01:02:44.889Z,101233.84
2018-12-28T01:03:50.859Z,101220.86
2018-12-28T01:04:56.778Z,101222.16
2018-12-28T01:06:02.718Z,101224.75
2018-12-28T01:07:08.679Z,101219.13
2018-12-28T01:08:14.666Z,101217.85
2018-12-28T01:09:20.617Z,101220.44
2018-12-28T01:10:26.606Z,101216.55
2018-12-28T01:11:32.526Z,101226.92
2018-12-28T01:12:38.199Z,101222.16
2018-12-28T01:13:44.143Z,101213.92
2018-12-28T01:14:50.107Z,101214.80
2018-12-28T01:15:55.783Z,101212.63
2018-12-28T01:17:01.777Z,101210.06
2018-12-28T01:18:07.782Z,101209.19
2018-12-28T01:19:13.772Z,101217.85
2018-12-28T01:20:19.792Z,101211.38
2018-12-28T01:21:25.745Z,101217.83
2018-12-28T01:22:31.333Z,101212.66
2018-12-28T01:23:37.293Z,101218.28
2018-12-28T01:24:43.263Z,101220.44
2018-12-28T01:25:48.828Z,101220.88
2018-12-28T01:26:54.737Z,101222.58
2018-12-28T01:28:00.698Z,101224.73
2018-12-28T01:29:06.633Z,101225.62
2018-12-28T01:30:12.600Z,101223.05
2018-12-28T01:31:18.508Z,101228.20
2018-12-28T01:32:24.412Z,101223.47
2018-12-28T01:33:30.329Z,101229.49
2018-12-28T01:34:36.338Z,101226.46
2018-12-28T01:35:42.306Z,101223.45
2018-12-28T01:36:48.206Z,101226.48
2018-12-28T01:37:54.145Z,101223.89
2018-12-28T01:39:00.140Z,101232.48
2018-12-28T01:40:06.164Z,101230.30
2018-12-28T01:41:12.121Z,101231.61
2018-12-28T01:42:18.177Z,101230.80
2018-12-28T01:43:24.109Z,101230.81
2018-12-28T01:44:30.257Z,101230.81
2018-12-28T01:45:35.829Z,101224.72
2018-12-28T01:46:41.043Z,101229.05
2018-12-28T01:47:47.069Z,101226.42
2018-12-28T01:48:53.049Z,101226.40
2018-12-28T01:49:58.956Z,101228.97
2018-12-28T01:51:04.910Z,101225.93
2018-12-28T01:52:10.489Z,101232.36
2018-12-28T01:53:16.468Z,101232.77
2018-12-28T01:54:22.461Z,101228.48
2018-12-28T01:55:28.364Z,101235.43
2018-12-28T01:56:33.972Z,101224.30
2018-12-28T01:57:39.893Z,101225.16
2018-12-28T01:58:45.808Z,101226.02
2018-12-28T01:59:51.761Z,101229.00
2018-12-28T02:00:57.735Z,101231.92
2018-12-28T02:02:02.645Z,101226.70
2018-12-28T02:03:07.562Z,101227.53
2018-12-28T02:04:12.493Z,101224.88
2018-12-28T02:05:17.380Z,101223.22
2018-12-28T02:06:22.310Z,101220.99
2018-12-28T02:07:27.230Z,101217.97
2018-12-28T02:08:33.148Z,101215.80
2018-12-28T02:09:39.158Z,101217.47
2018-12-28T02:10:45.158Z,101214.84
2018-12-28T02:11:51.096Z,101214.33
2018-12-28T02:12:57.097Z,101219.92
2018-12-28T02:14:02.673Z,101215.11
2018-12-28T02:15:08.329Z,101215.00
2018-12-28T02:16:14.245Z,101220.64
2018-12-28T02:17:20.675Z,101219.69
2018-12-28T02:18:26.587Z,101218.42
2018-12-28T02:19:32.209Z,101219.31
2018-12-28T02:20:37.855Z,101212.95
2018-12-28T02:21:43.415Z,101213.07
2018-12-28T02:22:49.404Z,101212.99
2018-12-28T02:23:54.951Z,101214.61
2018-12-28T02:25:00.906Z,101217.97
2018-12-28T02:26:06.832Z,101214.05
2018-12-28T02:27:12.805Z,101212.38
2018-12-28T02:28:19.069Z,101216.73
2018-12-28T02:29:25.062Z,101212.44
2018-12-28T02:30:39.095Z,101212.83
2018-12-28T02:31:45.111Z,101209.38
2018-12-28T02:32:51.086Z,101206.06
2018-12-28T02:33:56.706Z,101207.41
2018-12-28T02:35:02.678Z,101203.91
2018-12-28T02:36:08.605Z,101210.47
2018-12-28T02:37:13.832Z,101210.28
2018-12-28T02:38:19.779Z,101210.72
2018-12-28T02:39:25.729Z,101207.70
2018-12-28T02:40:31.670Z,101198.72
2018-12-28T02:41:37.630Z,101200.55
2018-12-28T02:42:43.529Z,101198.89
2018-12-28T02:43:49.503Z,101203.20
2018-12-28T02:44:55.462Z,101198.47
2018-12-28T02:46:01.391Z,101201.46
2018-12-28T02:47:07.317Z,101195.45
2018-12-28T02:48:13.227Z,101199.30
2018-12-28T02:49:19.146Z,101207.00
2018-12-28T02:50:25.139Z,101208.30
2018-12-28T02:51:31.131Z,101210.03
2018-12-28T02:52:37.139Z,101207.86
2018-12-28T02:53:43.123Z,101215.19
2018-12-28T02:54:48.770Z,101210.46
2018-12-28T02:55:54.741Z,101212.23
2018-12-28T02:57:00.704Z,101210.06
2018-12-28T02:58:06.647Z,101204.09
2018-12-28T02:59:12.587Z,101202.33
2018-12-28T03:00:18.555Z,101202.76
2018-12-28T03:01:24.491Z,101201.10
2018-12-28T03:02:30.438Z,101207.63
2018-12-28T03:03:36.383Z,101210.20
2018-12-28T03:04:42.005Z,101205.41
2018-12-28T03:05:47.997Z,101208.83
2018-12-28T03:06:53.975Z,101212.75
2018-12-28T03:07:59.905Z,101208.04
2018-12-28T03:09:05.147Z,101203.29
2018-12-28T03:10:11.270Z,101200.75
2018-12-28T03:11:17.214Z,101204.15
2018-12-28T03:12:23.234Z,101202.84
2018-12-28T03:13:29.198Z,101208.05
2018-12-28T03:14:35.173Z,101211.48
2018-12-28T03:15:41.202Z,101215.80
2018-12-28T03:16:47.283Z,101213.63
2018-12-28T03:17:53.279Z,101213.18
2018-12-28T03:18:59.228Z,101214.09
2018-12-28T03:20:04.504Z,101206.38
2018-12-28T03:21:10.494Z,101210.38
2018-12-28T03:22:16.440Z,101216.00
2018-12-28T03:23:22.365Z,101217.80
2018-12-28T03:24:28.343Z,101213.88
2018-12-28T03:25:34.309Z,101219.92
2018-12-28T03:26:40.239Z,101214.73
2018-12-28T03:27:46.318Z,101213.83
2018-12-28T03:28:52.278Z,101221.55
2018-12-28T03:29:58.186Z,101216.37
2018-12-28T03:31:04.109Z,101219.86
2018-12-28T03:32:10.039Z,101219.47
2018-12-28T03:33:15.953Z,101218.66
2018-12-28T03:34:21.904Z,101216.94
2018-12-28T03:35:27.862Z,101220.86
2018-12-28T03:36:33.868Z,101221.70
2018-12-28T03:37:39.895Z,101219.98
2018-12-28T03:38:45.854Z,101229.48
2018-12-28T03:39:52.575Z,101226.90
2018-12-28T03:40:57.812Z,101231.22
2018-12-28T03:42:03.748Z,101230.34
2018-12-28T03:43:09.341Z,101229.50
2018-12-28T03:44:15.264Z,101228.23
2018-12-28T03:45:21.208Z,101229.08
2018-12-28T03:46:26.794Z,101230.83
2018-12-28T03:47:32.685Z,101231.25
2018-12-28T03:48:38.643Z,101230.37
2018-12-28T03:49:44.565Z,101231.24
2018-12-28T03:50:50.583Z,101227.37
2018-12-28T03:51:56.510Z,101232.98
2018-12-28T03:53:02.426Z,101236.41
2018-12-28T03:54:08.411Z,101230.39
2018-12-28T03:55:14.078Z,101227.34
2018-12-28T03:56:19.696Z,101227.77
2018-12-28T03:57:25.682Z,101230.83
2018-12-28T03:58:31.608Z,101226.04
2018-12-28T03:59:37.620Z,101225.61
2018-12-28T04:00:43.607Z,101223.45
2018-12-28T04:01:49.563Z,101223.02
2018-12-28T04:02:55.194Z,101223.90
2018-12-28T04:04:01.077Z,101229.09
2018-12-28T04:05:06.385Z,101231.25
2018-12-28T04:06:12.338Z,101226.90
2018-12-28T04:07:17.930Z,101227.37
2018-12-28T04:08:23.926Z,101229.95
2018-12-28T04:09:29.551Z,101226.06
2018-12-28T04:10:35.586Z,101231.23
2018-12-28T04:11:41.531Z,101233.83
2018-12-28T04:12:47.518Z,101232.11
2018-12-28T04:13:53.498Z,101226.48
2018-12-28T04:14:59.513Z,101227.36
2018-12-28T04:16:05.551Z,101225.62
2018-12-28T04:17:11.522Z,101226.47
2018-12-28T04:18:17.488Z,101223.47
2018-12-28T04:19:23.444Z,101226.49
2018-12-28T04:20:29.403Z,101225.19
2018-12-28T04:21:35.359Z,101223.47
2018-12-28T04:22:41.023Z,101226.50
2018-12-28T04:23:46.961Z,101230.80
2018-12-28T04:24:52.967Z,101230.80
2018-12-28T04:25:58.926Z,101233.82
2018-12-28T04:27:04.912Z,101225.61
2018-12-28T04:28:10.826Z,101234.69
2018-12-28T04:29:16.801Z,101229.53
2018-12-28T04:30:22.788Z,101228.22
2018-12-28T04:31:28.801Z,101225.60
2018-12-28T04:32:34.737Z,101226.47
2018-12-28T04:33:40.734Z,101226.03
2018-12-28T04:34:46.730Z,101230.36
2018-12-28T04:35:52.777Z,101223.89
2018-12-28T04:36:58.701Z,101228.21
2018-12-28T04:38:04.654Z,101228.64
2018-12-28T04:39:10.561Z,101226.48
2018-12-28T04:40:16.520Z,101226.91
2018-12-28T04:41:22.485Z,101226.02
2018-12-28T04:42:28.497Z,101227.33
2018-12-28T04:43:34.430Z,101224.33
2018-12-28T04:44:40.421Z,101221.31
2018-12-28T04:45:46.479Z,101219.58
2018-12-28T04:46:52.525Z,101224.75
2018-12-28T04:47:59.120Z,101228.66
2018-12-28T04:49:05.095Z,101227.78
2018-12-28T04:50:10.727Z,101223.45
2018-12-28T04:51:15.983Z,101224.73
2018-12-28T04:52:21.528Z,101224.74
2018-12-28T04:53:26.787Z,101227.31
2018-12-28T04:54:32.012Z,101225.62
2018-12-28T04:55:37.310Z,101226.02
2018-12-28T04:56:43.022Z,101229.06
2018-12-28T04:57:48.296Z,101233.80
2018-12-28T04:58:53.510Z,101231.66
2018-12-28T04:59:58.792Z,101231.64
2018-12-28T05:01:05.702Z,101236.41
2018-12-28T05:02:10.964Z,101235.12
2018-12-28T05:03:16.265Z,101235.98
2018-12-28T05:04:22.230Z,101233.81
2018-12-28T05:05:27.537Z,101238.17
2018-12-28T05:08:19.809Z,101236.42
2018-12-28T05:11:22.013Z,101239.86
2018-12-28T05:12:48.426Z,101238.53
2018-12-28T05:13:53.990Z,101246.38
2018-12-28T05:16:53.953Z,101238.58
2018-12-28T05:18:27.378Z,101240.31
2018-12-28T05:19:32.948Z,101238.58
2018-12-28T05:20:54.714Z,101238.14
2018-12-28T05:24:09.043Z,101234.70
2018-12-28T05:25:28.520Z,101242.49
2018-12-28T05:26:33.809Z,101239.88
2018-12-28T05:27:42.870Z,101241.19
2018-12-28T05:28:52.696Z,101249.83
2018-12-28T05:31:30.777Z,101239.44
2018-12-28T05:32:37.019Z,101248.55
2018-12-28T05:33:43.594Z,101246.37
2018-12-28T05:34:51.276Z,101246.80
2018-12-28T05:35:57.258Z,101254.58
2018-12-28T05:37:03.306Z,101250.25
2018-12-28T05:38:09.974Z,101252.84
2018-12-28T05:39:16.670Z,101253.27
2018-12-28T05:40:26.173Z,101258.45
2018-12-28T05:41:29.240Z,101255.39
2018-12-28T05:42:35.182Z,101253.69
2018-12-28T05:43:43.531Z,101257.59
2018-12-28T05:44:51.258Z,101253.27
2018-12-28T05:45:58.335Z,101251.13
2018-12-28T05:47:04.838Z,101254.57
2018-12-28T05:48:11.158Z,101255.85
2018-12-28T05:49:17.481Z,101250.27
2018-12-28T05:50:23.471Z,101256.73
2018-12-28T05:51:29.453Z,101257.62
2018-12-28T05:52:35.458Z,101258.04
2018-12-28T05:53:41.464Z,101257.63
2018-12-28T05:54:47.492Z,101255.02
2018-12-28T05:55:53.434Z,101261.08
2018-12-28T05:56:59.080Z,101255.44
2018-12-28T05:58:04.347Z,101260.63
2018-12-28T05:59:09.933Z,101262.34
2018-12-28T06:00:15.576Z,101263.22
2018-12-28T06:01:21.136Z,101266.24
2018-12-28T06:02:27.112Z,101269.70
2018-12-28T06:03:32.729Z,101270.59
2018-12-28T06:04:38.662Z,101279.22
2018-12-28T06:05:44.384Z,101275.76
2018-12-28T06:06:50.351Z,101271.86
2018-12-28T06:07:55.930Z,101267.96
2018-12-28T06:09:02.068Z,101273.16
2018-12-28T06:10:08.874Z,101272.30
2018-12-28T06:11:14.491Z,101280.96
2018-12-28T06:12:20.469Z,101280.52
2018-12-28T06:13:27.498Z,101278.36
2018-12-28T06:14:34.439Z,101286.58
2018-12-28T06:15:41.449Z,101284.41
2018-12-28T06:16:47.415Z,101281.81
2018-12-28T06:17:53.502Z,101276.64
2018-12-28T06:18:59.089Z,101283.53
2018-12-28T06:20:04.767Z,101285.27
2018-12-28T06:21:10.746Z,101281.38
2018-12-28T06:22:16.324Z,101279.67
2018-12-28T06:23:23.538Z,101282.25
2018-12-28T06:24:30.073Z,101283.55
2018-12-28T06:25:38.470Z,101284.43
2018-12-28T06:26:44.133Z,101286.16
2018-12-28T06:27:49.400Z,101288.73
2018-12-28T06:28:55.365Z,101288.31
2018-12-28T06:30:02.268Z,101292.18
2018-12-28T06:31:08.884Z,101292.19
2018-12-28T06:32:14.513Z,101290.45
2018-12-28T06:33:20.226Z,101293.46
2018-12-28T06:34:26.576Z,101294.74
2018-12-28T06:35:32.417Z,101292.59
2018-12-28T06:36:38.061Z,101292.60
2018-12-28T06:37:44.976Z,101289.57
2018-12-28T06:38:50.587Z,101293.03
2018-12-28T06:39:56.530Z,101295.64
2018-12-28T06:41:02.122Z,101297.38
2018-12-28T06:42:07.775Z,101298.65
2018-12-28T06:43:13.371Z,101297.36
2018-12-28T06:44:18.614Z,101296.92
2018-12-28T06:45:23.866Z,101296.08
2018-12-28T06:46:29.125Z,101302.14
2018-12-28T06:47:34.744Z,101290.91
2018-12-28T06:48:40.043Z,101303.44
2018-12-28T06:49:46.912Z,101303.42
2018-12-28T06:50:52.462Z,101306.04
2018-12-28T06:51:58.404Z,101303.45
2018-12-28T06:53:28.509Z,101309.06
2018-12-28T06:56:31.612Z,101303.86
2018-12-28T06:57:58.898Z,101305.56
2018-12-28T07:01:19.584Z,101314.67
2018-12-28T07:06:23.221Z,101313.81
2018-12-28T07:07:40.682Z,101318.14
2018-12-28T07:08:53.265Z,101316.40
2018-12-28T07:10:15.692Z,101317.72
2018-12-28T07:13:04.587Z,101318.98
2018-12-28T07:14:21.334Z,101320.72
2018-12-28T07:15:47.499Z,101311.63
2018-12-28T07:17:18.615Z,101318.13
2018-12-28T07:18:44.028Z,101310.78
2018-12-28T07:19:59.284Z,101319.02
2018-12-28T07:21:10.590Z,101319.88
2018-12-28T07:24:07.740Z,101319.89
2018-12-28T07:27:21.720Z,101325.92
2018-12-28T07:29:04.298Z,101323.31
2018-12-28T07:30:45.628Z,101327.22
2018-12-28T07:32:10.108Z,101325.48
2018-12-28T07:33:33.174Z,101324.63
2018-12-28T07:34:44.942Z,101327.23
2018-12-28T07:36:05.696Z,101322.03
2018-12-28T07:37:27.673Z,101326.34
2018-12-28T07:38:34.679Z,101323.32
2018-12-28T07:39:41.370Z,101328.10
2018-12-28T07:42:28.902Z,101325.94
2018-12-28T07:45:07.417Z,101328.97
2018-12-28T07:46:19.115Z,101326.34
2018-12-28T07:47:31.124Z,101333.26
2018-12-28T07:48:38.828Z,101329.80
2018-12-28T07:49:47.494Z,101332.84
2018-12-28T07:51:10.398Z,101331.11
2018-12-28T07:52:22.184Z,101328.94
2018-12-28T07:53:35.134Z,101330.23
2018-12-28T07:56:39.224Z,101339.34
2018-12-28T07:58:22.870Z,101341.48
2018-12-28T07:59:45.689Z,101341.05
2018-12-28T08:01:06.687Z,101339.31
2018-12-28T08:02:19.802Z,101341.06
2018-12-28T08:03:32.451Z,101338.05
2018-12-28T08:04:42.775Z,101344.11
2018-12-28T08:06:13.328Z,101340.62
2018-12-28T08:07:45.030Z,101340.62
2018-12-28T08:08:50.447Z,101338.89
2018-12-28T08:12:00.508Z,101346.68
2018-12-28T08:13:20.853Z,101343.23
2018-12-28T08:16:19.515Z,101349.73
2018-12-28T08:18:01.155Z,101352.31
2018-12-28T08:19:29.542Z,101355.77
2018-12-28T08:20:50.076Z,101345.37
2018-12-28T08:23:42.120Z,101348.41
2018-12-28T08:24:53.695Z,101350.14
2018-12-28T08:26:10.761Z,101349.70
2018-12-28T08:28:53.702Z,101354.05
2018-12-28T08:30:01.121Z,101357.95
2018-12-28T08:32:52.734Z,101358.37
2018-12-28T08:34:05.062Z,101360.08
2018-12-28T08:35:18.410Z,101366.14
2018-12-28T08:36:30.886Z,101363.13
2018-12-28T08:37:42.064Z,101361.38
2018-12-28T08:39:00.201Z,101364.43
2018-12-28T08:40:06.878Z,101365.70
2018-12-28T08:43:17.869Z,101369.63
2018-12-28T08:46:35.342Z,101373.94
2018-12-28T08:47:46.298Z,101370.91
2018-12-28T08:50:31.180Z,101372.65
2018-12-28T08:51:53.893Z,101377.41
2018-12-28T08:54:55.847Z,101378.25
2018-12-28T08:56:36.207Z,101381.27
2018-12-28T08:57:57.243Z,101385.16
2018-12-28T08:59:09.983Z,101379.12
2018-12-28T09:02:05.459Z,101385.17
2018-12-28T09:03:29.660Z,101380.83
2018-12-28T09:04:40.446Z,101387.77
2018-12-28T09:05:57.530Z,101389.49
2018-12-28T09:07:09.217Z,101384.28
2018-12-28T09:08:26.165Z,101386.48
2018-12-28T09:09:35.900Z,101391.23
2018-12-28T09:10:52.873Z,101386.04
2018-12-28T09:13:43.896Z,101382.16
2018-12-28T09:14:59.405Z,101386.05
2018-12-28T09:16:29.412Z,101383.01
2018-12-28T09:17:36.039Z,101387.32
2018-12-28T09:18:49.008Z,101386.05
2018-12-28T09:19:57.035Z,101388.20
2018-12-28T09:21:03.102Z,101390.81
2018-12-28T09:22:23.816Z,101382.56
2018-12-28T09:23:40.288Z,101382.59
2018-12-28T09:26:45.293Z,101385.63
2018-12-28T09:28:00.909Z,101384.73
2018-12-28T09:29:08.689Z,101388.17
2018-12-28T09:30:16.403Z,101394.66
2018-12-28T09:31:24.065Z,101396.81
2018-12-28T09:32:43.821Z,101395.53
2018-12-28T09:35:55.039Z,101395.96
2018-12-28T09:37:31.634Z,101399.87
2018-12-28T09:38:56.140Z,101397.24
2018-12-28T09:40:13.119Z,101400.27
2018-12-28T09:41:28.034Z,101399.42
2018-12-28T09:42:40.677Z,101403.75
2018-12-28T09:43:48.481Z,101397.27
2018-12-28T09:44:57.063Z,101399.44
2018-12-28T09:47:50.722Z,101399.01
2018-12-28T09:48:55.977Z,101396.80
2018-12-28T09:50:11.931Z,101404.62
2018-12-28T09:51:31.039Z,101402.87
2018-12-28T09:52:58.621Z,101407.22
2018-12-28T09:54:03.855Z,101401.18
2018-12-28T09:55:13.595Z,101395.95
2018-12-28T09:56:25.223Z,101402.00
2018-12-28T09:57:33.486Z,101398.94
2018-12-28T09:58:46.265Z,101399.39
2018-12-28T09:59:57.153Z,101396.33
2018-12-28T10:01:15.866Z,101395.91
2018-12-28T10:04:13.957Z,101392.51
2018-12-28T10:05:33.597Z,101396.81
2018-12-28T10:06:38.850Z,101397.23
2018-12-28T10:07:45.768Z,101396.80
2018-12-28T10:09:01.919Z,101390.30
2018-12-28T10:10:26.681Z,101393.74
2018-12-28T10:11:37.750Z,101395.47
2018-12-28T10:12:51.498Z,101398.02
2018-12-28T10:13:58.736Z,101397.19
2018-12-28T10:15:03.954Z,101392.45
2018-12-28T10:16:09.311Z,101395.91
2018-12-28T10:17:15.212Z,101399.34
2018-12-28T10:18:21.153Z,101390.71
2018-12-28T10:19:27.176Z,101389.83
2018-12-28T10:20:33.331Z,101390.69
2018-12-28T10:21:39.284Z,101392.84
2018-12-28T10:22:45.234Z,101393.75
2018-12-28T10:23:51.147Z,101386.44
2018-12-28T10:24:57.087Z,101391.64
2018-12-28T10:26:03.039Z,101387.30
2018-12-28T10:27:08.964Z,101394.16
2018-12-28T10:28:14.864Z,101391.08
2018-12-28T10:29:20.797Z,101391.94
2018-12-28T10:30:26.717Z,101389.30
2018-12-28T10:31:32.705Z,101387.17
2018-12-28T10:32:38.647Z,101388.05
2018-12-28T10:33:44.549Z,101392.34
2018-12-28T10:34:50.510Z,101388.86
2018-12-28T10:35:56.414Z,101392.72
2018-12-28T10:37:02.396Z,101385.82
2018-12-28T10:38:08.359Z,101389.32
2018-12-28T10:39:14.731Z,101388.45
2018-12-28T10:40:20.258Z,101387.99
2018-12-28T10:41:26.201Z,101387.16
2018-12-28T10:42:32.091Z,101388.92
2018-12-28T10:43:38.004Z,101385.09
2018-12-28T10:44:43.903Z,101379.47
2018-12-28T10:45:49.835Z,101384.19
2018-12-28T10:46:55.788Z,101378.09
2018-12-28T10:48:01.737Z,101380.28
2018-12-28T10:49:07.658Z,101379.02
2018-12-28T10:50:13.692Z,101382.47
2018-12-28T10:51:19.674Z,101377.25
2018-12-28T10:52:25.689Z,101376.43
2018-12-28T10:53:31.614Z,101374.19
2018-12-28T10:54:38.285Z,101369.78
2018-12-28T10:55:44.298Z,101372.82
2018-12-28T10:56:50.287Z,101371.93
2018-12-28T10:57:56.190Z,101370.61
2018-12-28T10:59:02.196Z,101372.40
2018-12-28T11:00:07.209Z,101374.59
2018-12-28T11:01:13.127Z,101373.23
2018-12-28T11:02:19.091Z,101374.94
2018-12-28T11:03:25.001Z,101376.72
2018-12-28T11:04:30.952Z,101371.06
2018-12-28T11:05:36.858Z,101370.59
2018-12-28T11:06:42.950Z,101368.38
2018-12-28T11:07:48.914Z,101366.22
2018-12-28T11:08:54.888Z,101373.64
2018-12-28T11:10:00.785Z,101365.48
2018-12-28T11:11:06.718Z,101367.19
2018-12-28T11:12:12.729Z,101363.70
2018-12-28T11:13:18.726Z,101370.70
2018-12-28T11:14:24.681Z,101368.07
2018-12-28T11:15:30.601Z,101367.60
2018-12-28T11:16:36.532Z,101369.71
2018-12-28T11:17:42.517Z,101371.07
2018-12-28T11:18:48.470Z,101371.45
2018-12-28T11:19:54.353Z,101364.09
2018-12-28T11:21:00.255Z,101366.21
2018-12-28T11:22:06.312Z,101369.73
2018-12-28T11:23:12.290Z,101371.01
2018-12-28T11:24:18.206Z,101366.27
2018-12-28T11:25:24.147Z,101363.27
2018-12-28T11:26:30.101Z,101363.22
2018-12-28T11:27:36.014Z,101360.97
2018-12-28T11:28:41.961Z,101362.30
2018-12-28T11:29:47.892Z,101361.03
2018-12-28T11:30:53.908Z,101359.28
2018-12-28T11:31:59.811Z,101354.12
2018-12-28T11:33:05.796Z,101361.48
2018-12-28T11:34:11.784Z,101355.37
2018-12-28T11:35:17.753Z,101360.98
2018-12-28T11:36:23.675Z,101361.47
2018-12-28T11:37:29.700Z,101362.78
2018-12-28T11:38:35.676Z,101370.06
2018-12-28T11:39:41.614Z,101361.88
2018-12-28T11:40:47.545Z,101361.52
2018-12-28T11:41:53.527Z,101360.14
2018-12-28T11:42:59.438Z,101357.87
2018-12-28T11:44:05.383Z,101356.13
2018-12-28T11:45:11.302Z,101356.54
2018-12-28T11:46:17.289Z,101356.20
2018-12-28T11:47:23.289Z,101358.44
2018-12-28T11:48:29.239Z,101352.00
2018-12-28T11:49:35.184Z,101356.21
2018-12-28T11:50:41.111Z,101354.52
2018-12-28T11:51:47.028Z,101358.39
2018-12-28T11:52:52.650Z,101356.63
2018-12-28T11:53:58.223Z,101360.98
2018-12-28T11:55:04.151Z,101351.89
2018-12-28T11:56:10.066Z,101357.06
2018-12-28T11:57:15.943Z,101353.55
2018-12-28T11:58:21.880Z,101356.65
2018-12-28T11:59:27.802Z,101357.06
2018-12-28T12:00:33.778Z,101357.49
2018-12-28T12:01:39.669Z,101357.02
2018-12-28T12:02:45.564Z,101357.44
2018-12-28T12:03:51.594Z,101361.77
2018-12-28T12:04:57.549Z,101361.75
2018-12-28T12:06:03.456Z,101354.41
2018-12-28T12:07:09.044Z,101357.41
2018-12-28T12:08:14.980Z,101356.95
2018-12-28T12:09:20.933Z,101363.55
2018-12-28T12:10:26.872Z,101361.42
2018-12-28T12:11:32.854Z,101357.52
2018-12-28T12:12:38.787Z,101362.72
2018-12-28T12:13:44.736Z,101366.68
2018-12-28T12:14:50.611Z,101370.94
2018-12-28T12:15:56.524Z,101367.50
2018-12-28T12:17:02.461Z,101366.28
2018-12-28T12:18:08.459Z,101367.55
2018-12-28T12:19:14.592Z,101369.16
2018-12-28T12:20:20.514Z,101367.91
2018-12-28T12:21:26.969Z,101367.93
2018-12-28T12:22:33.214Z,101361.44
2018-12-28T12:23:39.125Z,101366.70
2018-12-28T12:24:45.022Z,101364.92
2018-12-28T12:25:50.972Z,101364.88
2018-12-28T12:26:56.952Z,101367.41
2018-12-28T12:28:02.886Z,101362.27
2018-12-28T12:29:08.936Z,101371.31
2018-12-28T12:30:15.621Z,101367.86
2018-12-28T12:31:21.587Z,101363.09
2018-12-28T12:32:27.205Z,101371.31
2018-12-28T12:33:33.179Z,101373.55
2018-12-28T12:34:39.124Z,101369.60
2018-12-28T12:35:45.089Z,101369.14
2018-12-28T12:36:51.015Z,101372.67
2018-12-28T12:37:57.024Z,101367.45
2018-12-28T12:39:02.761Z,101360.51
2018-12-28T12:40:08.377Z,101370.91
2018-12-28T12:41:14.360Z,101369.59
2018-12-28T12:42:20.277Z,101367.88
2018-12-28T12:43:26.256Z,101365.22
2018-12-28T12:44:32.251Z,101358.25
2018-12-28T12:45:38.834Z,101365.73
2018-12-28T12:46:44.834Z,101364.83
2018-12-28T12:47:50.757Z,101358.73
2018-12-28T12:48:56.711Z,101361.34
2018-12-28T12:50:02.677Z,101358.33
2018-12-28T12:51:08.664Z,101363.52
2018-12-28T12:52:14.613Z,101359.20
2018-12-28T12:53:20.719Z,101362.52
2018-12-28T12:54:26.892Z,101361.64
2018-12-28T12:55:32.914Z,101368.59
2018-12-28T12:56:38.886Z,101364.38
2018-12-28T12:57:44.798Z,101364.44
2018-12-28T12:58:50.769Z,101359.98
2018-12-28T12:59:56.733Z,101365.15
2018-12-28T13:01:02.661Z,101360.30
2018-12-28T13:02:08.620Z,101360.36
2018-12-28T13:03:14.593Z,101367.66
2018-12-28T13:04:20.521Z,101361.61
2018-12-28T13:05:26.504Z,101365.41
2018-12-28T13:06:32.424Z,101363.59
2018-12-28T13:07:38.434Z,101366.58
2018-12-28T13:08:44.407Z,101364.03
2018-12-28T13:09:50.377Z,101367.12
2018-12-28T13:10:56.294Z,101368.48
2018-12-28T13:12:02.216Z,101365.58
2018-12-28T13:13:08.176Z,101364.69
2018-12-28T13:14:14.193Z,101363.37
2018-12-28T13:15:20.168Z,101365.52
2018-12-28T13:16:26.102Z,101371.92
2018-12-28T13:17:32.042Z,101364.52
2018-12-28T13:18:37.965Z,101367.69
2018-12-28T13:19:43.982Z,101371.95
2018-12-28T13:20:49.880Z,101375.34
2018-12-28T13:21:55.843Z,101380.06
2018-12-28T13:23:01.751Z,101374.80
2018-12-28T13:24:07.681Z,101370.13
2018-12-28T13:25:13.643Z,101372.79
2018-12-28T13:26:19.574Z,101377.13
2018-12-28T13:27:25.521Z,101373.58
2018-12-28T13:28:31.469Z,101375.87
2018-12-28T13:29:37.379Z,101375.01
2018-12-28T13:30:43.361Z,101375.80
2018-12-28T13:31:49.293Z,101380.14
2018-12-28T13:32:55.237Z,101376.77
2018-12-28T13:34:01.153Z,101372.09
2018-12-28T13:35:06.778Z,101385.42
2018-12-28T13:36:12.718Z,101379.70
2018-12-28T13:37:18.689Z,101381.11
2018-12-28T13:38:24.604Z,101379.40
2018-12-28T13:39:30.556Z,101381.92
2018-12-28T13:40:36.483Z,101390.17
2018-12-28T13:41:42.422Z,101390.72
2018-12-28T13:42:48.329Z,101394.17
2018-12-28T13:43:54.225Z,101394.66
2018-12-28T13:45:00.167Z,101396.73
2018-12-28T13:46:06.145Z,101394.99
2018-12-28T13:47:12.042Z,101400.16
2018-12-28T13:48:18.046Z,101404.47